Главная страница
METAR-TAF:

METAR-TAF

Аэропорты :

Lancaster Airport

Ланкастер, Пенсильвания, США

широта: 40-07-13N, долгота: 076-17-40W, высота над уровнем моря: 123 м

Текущие метеонаблюдения

Эта сводка был подготовлена 1 час и 4 минут назад, в 01:53 UTC
Ветер 12 Узел от северно-северо-западный с порывами до 21 Узел
Температура -2°C
Влажность 33%
Давление 1023 hPa
Видимость: 16.1 км
ясное небо

METAR: KLNS 130153Z 34012G21KT 10SM CLR M02/M16 A3020 RMK AO2 SLP230 T10171161

Время: 21:57 (02:57 UTC)

Прогноз

Эта сводка был подготовлена 3 часа и 27 минут назад, в 23:30 UTC
Прогноз действительный с 13-го 00 UTC до 13-го 24 UTC
Ветер 12 Узел от северно-северо-западный с порывами до 22 Узел
Видимость: 10 км
Отдельные облака на высоте 4500 фута
Сплошная облачность на высоте 7000 фута
С 13-го 0600 UTC
Ветер 8 Узел от северо-западный
Видимость: 10 км
ясное небо

TAF: KLNS 122330Z 1300/1324 33012G22KT P6SM SCT045 OVC070 FM130600 31008KT P6SM SKC

Метеонаблюдения и прогнозы для более 4000 аэропортов (сводки METAR и TAF).

Имеющиеся станции представлены на карте желтыми и красными точками.

Чтобы увидеть название станции, наведите на нее мышь.

Затем щелкните, чтобы увидеть метеонаблюдения и метеопрогнозы.

Управление картой: чтобы увеличить масштаб, щелкните зеленые кнопки с черным крестиком; чтобы уменьшить масштаб, щелкните зеленую кнопку с тире; для просмотра соседних карт щелкайте зеленые стрелки.


METAR-TAF: